Airfield :
LOGIN :

Register | Disclaimer

   EN    FR    IT 

 










Legend :    VFR   Marginal VFR   IFR   Intensive IFR   Very Intensive IFR
Visi :
Ceiling :
>= 8 km
>= 3000ft
5 to 8 km
1000 to 3000 ft
1500m to 5 km
500 to 1000 ft
800 to 1500m
200 to 500 ft
< 800m
< 200 ft
Symbols :   Thunderstorms  Fog  Heavy snow  Heavy precipitations  Wind > 20 kt
SIGMETs :     Misc.  Thunderstorms  Icing  Turbulence  Mountain Waves  Volcanic Ashes






- Airport Elevation : 266 ft
- IATA code : NCL


EGNT - Newcastle

CURRENT METAR :
  • 291350Z AUTO 20002KT 3800 HZ SCT007/// BKN018/// OVC033/// 08/07 Q1025

EXPIRED METARs :
  • 291320Z AUTO 23001KT 2600 HZ BKN007/// OVC032/// 08/07 Q1025
  • 291250Z AUTO 28003KT 6000 FEW003/// BKN017/// OVC031/// 08/07 Q1025
  • 291220Z VRB01KT 4500 BR FEW018 SCT030 08/07 Q1025
  • 291150Z VRB01KT 2000 BR FEW009 SCT018 07/07 Q1025
  • 291120Z 23002KT 1200 R25/P1500 BR SCT003 BKN012 07/06 Q1025

TAF TAF EGNT
Valid from the 29 at 12:00 until the 30 at 12:00 UTC


291059Z 2912/3012 VRB03KT 6000 FEW008 SCT015
TEMPO 2912/3003 4000 BR BKN008
PROB40
TEMPO 2912/3003 0300 FG BKN001
BECMG 3000/3003 9999
TEMPO 3003/3012 BKN014
PROB30
TEMPO 3004/3012 6000 RA BKN008
BECMG 3006/3009 25010KT
PROB30
TEMPO 3010/3012 27015G25KT
ATIS : +44 191 214 3400



MET'MAP, your aeronautical weather chart ! - Copyright ORBIFLY December 2007 - Disclaimer

ORBIFLY MET'MAP TEAM :

Programming & Development : Alexandra Zaïnal
Concept & original design : Baudouin d'Aumeries
Assistance for programming : Marc-Olivier Méhu
Technical & hardware support : Manuel Goepfert

Contact : metmap@orbifly.com




SOURCES & CREDITS :

   NOAA